Time;durP1;ratioP1;P1;durP2;ratioP2;P2;SDS_P1;SDS_P2;PMS_P1;PMS_P2;Temp;Humidity;BMP_temperature;BMP_pressure;BME280_temperature;BME280_humidity;BME280_pressure;Samples;Min_cycle;Max_cycle;Signal;HPM_P1;HPM_P2
2021/05/31 00:01:53;;;;;;;1.33;1.23;;;;;;;6.75;100.00;100747.47;4843312;29;20045;-45
2021/05/31 00:04:56;;;;;;;1.83;1.15;;;;;;;6.75;100.00;100747.47;4841389;29;20053;-45
2021/05/31 00:08:00;;;;;;;1.10;1.10;;;;;;;6.73;100.00;100745.13;4824512;29;20065;-45
2021/05/31 00:11:04;;;;;;;1.10;0.90;;;;;;;6.71;100.00;100744.00;4825050;29;20049;-45
2021/05/31 00:14:07;;;;;;;2.58;0.95;;;;;;;6.69;100.00;100732.56;4825270;29;20143;-45
2021/05/31 00:17:11;;;;;;;2.25;1.40;;;;;;;6.66;100.00;100739.72;4825071;29;20045;-46
2021/05/31 00:20:17;;;;;;;6.78;1.25;;;;;;;6.67;100.00;100744.03;4824971;29;20515;-46
2021/05/31 00:23:20;;;;;;;2.25;1.48;;;;;;;6.70;100.00;100739.66;4813633;29;20049;-46
2021/05/31 00:26:24;;;;;;;1.80;1.15;;;;;;;6.69;100.00;100749.16;4824579;29;20049;-46
2021/05/31 00:29:27;;;;;;;7.85;1.00;;;;;;;6.70;100.00;100747.94;4824913;29;20499;-46
2021/05/31 00:32:30;;;;;;;2.33;1.35;;;;;;;6.70;100.00;100739.66;4824520;29;20057;-46
2021/05/31 00:35:34;;;;;;;1.42;1.33;;;;;;;6.65;100.00;100742.91;4813499;29;20407;-46
2021/05/31 00:38:42;;;;;;;1.05;0.95;;;;;;;6.59;100.00;100741.84;4824590;29;20046;-46
2021/05/31 00:41:48;;;;;;;6.55;2.13;;;;;;;6.55;100.00;100735.63;4813525;29;20057;-46
2021/05/31 00:44:52;;;;;;;1.42;0.90;;;;;;;6.49;100.00;100742.84;4824358;29;20514;-46
2021/05/31 00:47:55;;;;;;;3.78;1.65;;;;;;;6.45;100.00;100747.69;4813050;29;20061;-46
2021/05/31 00:51:01;;;;;;;4.90;2.55;;;;;;;6.44;100.00;100748.88;4824256;29;20063;-46
2021/05/31 00:54:04;;;;;;;3.97;1.70;;;;;;;6.40;100.00;100753.69;4824885;29;20049;-46
2021/05/31 00:57:08;;;;;;;1.92;1.35;;;;;;;6.39;100.00;100758.44;4824227;29;20053;-46
2021/05/31 01:00:12;;;;;;;2.17;1.98;;;;;;;6.32;100.00;100757.81;4824390;29;20407;-46
2021/05/31 01:03:15;;;;;;;1.80;1.70;;;;;;;6.27;100.00;100755.53;4824501;29;20053;-46
2021/05/31 01:06:23;;;;;;;3.28;1.63;;;;;;;6.18;100.00;100747.00;4836159;29;20133;-46
2021/05/31 01:09:57;;;;;;;6.50;1.75;;;;;;;6.09;100.00;100756.66;4842504;29;20522;-46
2021/05/31 01:13:03;;;;;;;2.88;1.33;;;;;;;6.03;100.00;100752.81;4842367;29;20049;-46
2021/05/31 01:16:16;;;;;;;4.63;2.15;;;;;;;6.03;100.00;100757.56;4842260;29;20065;-46
2021/05/31 01:19:51;;;;;;;12.68;3.60;;;;;;;6.00;100.00;100756.41;4842293;29;20073;-46
2021/05/31 01:22:56;;;;;;;4.95;2.25;;;;;;;6.01;100.00;100755.22;4842287;29;20050;-46
2021/05/31 01:26:03;;;;;;;2.55;1.88;;;;;;;6.15;100.00;100750.66;4842140;29;20053;-46
2021/05/31 01:29:08;;;;;;;4.65;2.28;;;;;;;6.34;100.00;100747.91;4842334;29;20053;-46
2021/05/31 01:32:13;;;;;;;5.43;2.70;;;;;;;6.56;100.00;100749.00;4830592;29;20069;-46
2021/05/31 01:35:36;;;;;;;3.15;1.77;;;;;;;6.76;100.00;100744.25;4842159;29;20494;-46
2021/05/31 01:38:42;;;;;;;4.25;2.10;;;;;;;6.94;100.00;100749.41;4841413;29;20049;-46
2021/05/31 01:41:47;;;;;;;7.43;3.10;;;;;;;7.14;100.00;100752.91;4842139;29;20380;-46
2021/05/31 01:44:51;;;;;;;3.08;2.00;;;;;;;7.27;100.00;100748.25;4841614;29;20062;-46
2021/05/31 01:47:55;;;;;;;12.93;3.08;;;;;;;7.39;100.00;100753.13;4841950;29;20061;-46
2021/05/31 01:51:01;;;;;;;2.28;1.75;;;;;;;7.51;100.00;100751.66;4817583;23;20054;-46
2021/05/31 01:54:10;;;;;;;3.80;1.67;;;;;;;7.65;100.00;100748.53;4805400;29;20066;-46
2021/05/31 02:11:31;;;;;;;1.98;1.20;;;;;;;7.96;100.00;100735.06;4827471;29;20053;-46
2021/05/31 02:14:44;;;;;;;;;;;;;;;7.95;100.00;100734.28;4823535;29;20058;-46
2021/05/31 02:18:35;;;;;;;5.97;2.42;;;;;;;7.95;100.00;100730.75;4824950;29;19917;-46
2021/05/31 02:21:41;;;;;;;5.15;2.70;;;;;;;7.94;100.00;100723.63;4826023;29;20062;-47
2021/05/31 02:24:45;;;;;;;8.00;3.70;;;;;;;7.93;100.00;100730.38;4826530;29;20057;-46
2021/05/31 02:46:35;;;;;;;7.47;3.33;;;;;;;7.54;100.00;100701.66;4825436;29;19917;-46
2021/05/31 02:49:38;;;;;;;5.10;2.22;;;;;;;7.47;100.00;100703.84;4825290;29;20049;-46
2021/05/31 02:52:42;;;;;;;7.35;1.90;;;;;;;7.31;100.00;100701.84;4825519;29;20053;-46
2021/05/31 02:55:46;;;;;;;4.15;1.80;;;;;;;7.10;100.00;100702.38;4825703;29;20045;-46
2021/05/31 02:58:49;;;;;;;5.13;2.38;;;;;;;6.89;100.00;100698.09;4825551;29;20061;-46
2021/05/31 03:01:53;;;;;;;3.70;2.13;;;;;;;6.63;100.00;100689.97;4825334;29;20053;-46
2021/05/31 03:04:56;;;;;;;6.57;2.55;;;;;;;6.40;100.00;100681.78;4822992;29;20511;-46
2021/05/31 03:08:00;;;;;;;7.05;2.25;;;;;;;6.18;100.00;100683.41;4807637;29;20053;-46
2021/05/31 03:11:03;;;;;;;2.97;1.85;;;;;;;6.09;100.00;100678.44;4807116;29;20519;-46
2021/05/31 03:18:35;;;;;;;18.95;3.42;;;;;;;5.84;100.00;100678.94;4791106;29;20054;-46
2021/05/31 03:21:38;;;;;;;1.95;1.85;;;;;;;5.72;100.00;100668.47;4788928;30;20050;-46
2021/05/31 03:24:42;;;;;;;3.45;2.20;;;;;;;5.58;100.00;100665.19;4789163;30;20054;-46
2021/05/31 03:27:46;;;;;;;5.63;2.97;;;;;;;5.43;100.00;100675.69;4788853;29;20115;-46
2021/05/31 03:30:49;;;;;;;6.10;2.58;;;;;;;5.33;100.00;100660.84;4789192;30;20397;-46
2021/05/31 03:33:53;;;;;;;4.65;3.05;;;;;;;5.26;100.00;100665.72;4789023;30;20054;-46
2021/05/31 03:36:57;;;;;;;6.50;3.08;;;;;;;5.22;100.00;100667.75;4789113;30;20519;-46
2021/05/31 03:40:01;;;;;;;9.48;3.88;;;;;;;5.15;100.00;100665.13;4789053;30;20074;-46
2021/05/31 03:43:04;;;;;;;2.33;2.10;;;;;;;5.08;100.00;100665.22;4789019;30;20058;-46
2021/05/31 03:46:08;;;;;;;6.22;2.65;;;;;;;5.01;100.00;100654.28;4788759;30;20162;-46
2021/05/31 03:49:11;;;;;;;2.90;2.33;;;;;;;5.00;100.00;100664.53;4788411;30;20528;-46
2021/05/31 03:52:14;;;;;;;10.15;3.53;;;;;;;5.00;100.00;100663.78;4788648;30;20058;-46
2021/05/31 03:55:18;;;;;;;13.98;3.33;;;;;;;5.02;100.00;100661.38;4787982;30;20050;-46
2021/05/31 03:58:22;;;;;;;6.90;2.08;;;;;;;5.02;100.00;100661.38;4788543;30;20054;-46
2021/05/31 04:01:25;;;;;;;9.38;2.22;;;;;;;4.98;100.00;100661.41;4788398;30;20074;-46
2021/05/31 04:04:39;;;;;;;4.57;2.15;;;;;;;4.99;100.00;100665.75;4788568;30;20057;-46
2021/05/31 04:14:29;;;;;;;7.47;2.45;;;;;;;5.02;100.00;100664.16;4788660;30;20070;-46
2021/05/31 04:17:32;;;;;;;7.22;3.20;;;;;;;5.01;100.00;100654.28;4788534;30;20377;-46
2021/05/31 04:20:36;;;;;;;6.93;2.00;;;;;;;5.03;100.00;100662.94;4788485;30;20054;-46
2021/05/31 04:23:39;;;;;;;6.80;3.42;;;;;;;5.00;100.00;100652.75;4788177;30;20050;-46
2021/05/31 04:26:44;;;;;;;8.40;2.75;;;;;;;5.01;100.00;100654.28;4786814;30;20409;-46
2021/05/31 04:29:47;;;;;;;7.47;3.22;;;;;;;5.03;100.00;100646.38;4788186;30;20074;-46
2021/05/31 04:32:51;;;;;;;6.68;3.92;;;;;;;5.03;100.00;100651.88;4787642;30;20058;-46
2021/05/31 04:35:54;;;;;;;5.53;2.30;;;;;;;5.06;100.00;100646.34;4788109;30;20054;-46
2021/05/31 04:38:58;;;;;;;5.85;2.67;;;;;;;5.10;100.00;100662.81;4787884;29;20054;-46
2021/05/31 04:42:05;;;;;;;4.43;2.90;;;;;;;5.21;100.00;100652.41;4787969;30;20095;-46
2021/05/31 04:45:09;;;;;;;2.58;2.38;;;;;;;5.26;100.00;100651.94;4787523;30;20405;-46
2021/05/31 04:48:13;;;;;;;5.38;2.88;;;;;;;5.31;100.00;100656.94;4787773;30;20050;-46
2021/05/31 04:51:16;;;;;;;8.00;3.05;;;;;;;5.36;100.00;100660.03;4787303;30;20085;-46
2021/05/31 04:54:20;;;;;;;5.18;2.58;;;;;;;5.43;100.00;100650.84;4787745;30;20050;-47
2021/05/31 04:57:24;;;;;;;2.90;2.47;;;;;;;5.57;100.00;100658.88;4787182;30;20067;-46
2021/05/31 05:00:27;;;;;;;5.95;2.75;;;;;;;5.65;100.00;100654.00;4786618;30;20066;-46
2021/05/31 05:03:30;;;;;;;9.38;3.30;;;;;;;5.78;100.00;100650.19;4787233;30;20058;-46
2021/05/31 05:06:34;;;;;;;7.05;2.15;;;;;;;5.93;100.00;100659.78;4816222;29;20053;-46
2021/05/31 05:09:38;;;;;;;5.22;3.22;;;;;;;5.99;100.00;100652.59;4812258;29;20069;-46
2021/05/31 05:12:42;;;;;;;8.88;3.65;;;;;;;6.17;100.00;100651.44;4812471;29;20053;-46
2021/05/31 05:15:46;;;;;;;15.60;4.13;;;;;;;6.35;100.00;100657.38;4812040;29;20053;-46
2021/05/31 05:18:50;;;;;;;4.72;2.33;;;;;;;6.50;100.00;100658.63;4812397;29;20043;-46
2021/05/31 05:21:54;;;;;;;3.20;2.90;;;;;;;6.59;100.00;100650.53;4812408;29;20076;-46
2021/05/31 05:24:57;;;;;;;4.85;2.45;;;;;;;6.65;100.00;100648.81;4823006;29;20065;-46
2021/05/31 05:28:01;;;;;;;9.23;2.78;;;;;;;6.72;100.00;100654.19;4823499;29;20077;-47
2021/05/31 05:31:09;;;;;;;6.03;3.70;;;;;;;6.83;100.00;100638.91;4823480;29;20054;-46
2021/05/31 05:34:13;;;;;;;3.70;2.60;;;;;;;6.93;100.00;100641.88;4812174;29;20102;-46
2021/05/31 05:37:25;;;;;;;7.00;3.42;;;;;;;6.96;100.00;100647.31;4812339;29;20404;-46
2021/05/31 05:46:51;;;;;;;6.80;3.33;;;;;;;7.31;100.00;100643.69;4823573;29;20067;-46
2021/05/31 05:49:54;;;;;;;7.15;2.35;;;;;;;7.38;100.00;100646.28;4823305;29;20061;-46
2021/05/31 05:52:57;;;;;;;7.43;2.50;;;;;;;7.38;100.00;100634.41;4826601;29;20098;-46
2021/05/31 05:56:02;;;;;;;5.80;2.28;;;;;;;7.46;100.00;100636.56;4826980;29;20057;-46
2021/05/31 05:59:06;;;;;;;2.80;1.80;;;;;;;7.65;100.00;100632.09;4826465;29;20053;-46
2021/05/31 06:02:10;;;;;;;8.93;2.53;;;;;;;7.93;100.00;100628.56;4826642;29;20054;-46
2021/05/31 06:05:14;;;;;;;12.93;2.42;;;;;;;8.25;100.00;100634.00;4822010;29;20065;-46
2021/05/31 06:08:18;;;;;;;6.82;2.60;;;;;;;8.54;100.00;100631.16;4808363;29;20046;-46
2021/05/31 06:11:22;;;;;;;6.78;3.88;;;;;;;8.82;100.00;100641.41;4807983;29;20062;-46
2021/05/31 06:14:25;;;;;;;5.60;2.35;;;;;;;9.07;100.00;100640.63;4805593;29;20042;-46
2021/05/31 06:22:03;;;;;;;6.40;3.40;;;;;;;9.29;100.00;100624.03;4791042;29;20393;-46
2021/05/31 06:25:09;;;;;;;6.38;3.03;;;;;;;9.46;100.00;100622.66;4789841;30;20054;-46
2021/05/31 06:28:12;;;;;;;10.27;3.75;;;;;;;9.56;100.00;100627.06;4790227;30;20059;-46
2021/05/31 06:31:15;;;;;;;5.88;2.40;;;;;;;9.65;100.00;100624.34;4790270;30;20047;-54
2021/05/31 06:34:19;;;;;;;10.90;2.55;;;;;;;9.71;100.00;100625.31;4789958;30;20401;-54
2021/05/31 06:41:57;;;;;;;5.88;1.75;;;;;;;10.04;100.00;100618.19;4792202;29;20055;-46
2021/05/31 06:45:00;;;;;;;6.47;2.47;;;;;;;10.16;100.00;100614.56;4789865;30;20058;-46
2021/05/31 06:48:06;;;;;;;18.02;3.15;;;;;;;10.21;100.00;100611.19;4789592;30;20058;-46
2021/05/31 06:51:09;;;;;;;6.40;2.40;;;;;;;10.41;100.00;100614.41;4789775;30;20043;-46
2021/05/31 06:54:12;;;;;;;5.88;2.47;;;;;;;10.56;100.00;100615.44;4789696;30;20059;-46
2021/05/31 06:57:16;;;;;;;3.70;1.85;;;;;;;10.52;100.00;100612.00;4789741;30;20489;-46
2021/05/31 07:00:22;;;;;;;4.47;1.90;;;;;;;10.57;100.00;100616.19;4789698;30;20095;-46
2021/05/31 07:03:26;;;;;;;7.85;2.28;;;;;;;10.60;100.00;100612.50;4788880;29;20512;-46
2021/05/31 07:06:29;;;;;;;8.93;2.35;;;;;;;10.51;100.00;100610.44;4805697;29;20054;-46
2021/05/31 07:09:33;;;;;;;12.48;2.58;;;;;;;10.30;100.00;100605.69;4814389;29;20507;-46
2021/05/31 07:12:37;;;;;;;10.70;2.60;;;;;;;10.31;100.00;100615.59;4825661;29;20054;-46
2021/05/31 07:15:41;;;;;;;8.07;2.13;;;;;;;10.32;100.00;100611.59;4825100;29;20054;-46
2021/05/31 07:18:45;;;;;;;14.65;2.90;;;;;;;10.27;100.00;100609.38;4825418;29;20038;-46
2021/05/31 07:21:49;;;;;;;6.13;1.83;;;;;;;10.47;100.00;100612.59;4825351;29;20046;-46
2021/05/31 07:24:53;;;;;;;6.13;2.42;;;;;;;10.59;100.00;100603.34;4825402;29;20038;-46
2021/05/31 07:27:57;;;;;;;9.35;2.83;;;;;;;10.63;100.00;100606.78;4825426;29;20057;-46
2021/05/31 07:31:01;;;;;;;4.55;2.63;;;;;;;10.81;100.00;100613.66;4825127;29;20618;-46
2021/05/31 07:34:05;;;;;;;5.32;2.55;;;;;;;10.82;100.00;100606.84;4825126;29;20046;-46
2021/05/31 07:37:09;;;;;;;6.30;3.22;;;;;;;10.68;100.00;100610.22;4824706;29;20396;-46
2021/05/31 07:40:15;;;;;;;7.22;1.92;;;;;;;10.68;100.00;100613.75;4824783;29;20057;-46
2021/05/31 07:43:19;;;;;;;6.00;2.40;;;;;;;10.59;100.00;100619.28;4799519;29;20057;-46
2021/05/31 07:46:23;;;;;;;4.72;1.70;;;;;;;10.48;100.00;100613.38;4805709;29;20139;-46
2021/05/31 07:49:27;;;;;;;8.25;2.03;;;;;;;10.47;100.00;100612.59;4795334;29;20059;-45
2021/05/31 07:52:31;;;;;;;5.75;2.03;;;;;;;10.55;100.00;100611.06;4805355;29;20046;-45
2021/05/31 07:55:34;;;;;;;7.50;2.47;;;;;;;10.70;100.00;100608.50;4806096;29;20523;-45
2021/05/31 07:58:40;;;;;;;6.97;2.22;;;;;;;10.86;100.00;100610.28;4806621;29;20511;-45
2021/05/31 08:01:43;;;;;;;7.88;2.22;;;;;;;10.90;100.00;100610.91;4806428;29;20046;-45
2021/05/31 08:04:47;;;;;;;8.27;2.55;;;;;;;10.94;100.00;100600.38;4807363;29;20055;-45
2021/05/31 08:07:50;;;;;;;6.60;2.15;;;;;;;10.96;100.00;100604.25;4812806;29;20046;-46
2021/05/31 08:10:55;;;;;;;7.07;2.88;;;;;;;11.01;100.00;100600.88;4824316;29;20050;-45
2021/05/31 08:13:58;;;;;;;4.78;1.88;;;;;;;11.09;100.00;100598.56;4812818;29;20404;-45
2021/05/31 08:17:03;;;;;;;7.15;2.38;;;;;;;11.16;100.00;100599.06;4824598;29;20057;-45
2021/05/31 08:20:08;;;;;;;5.95;2.30;;;;;;;11.28;100.00;100597.38;4824366;29;20039;-45
2021/05/31 08:23:11;;;;;;;8.63;2.78;;;;;;;11.45;100.00;100601.44;4824578;29;20047;-45
2021/05/31 08:26:20;;;;;;;5.82;1.67;;;;;;;11.47;100.00;100595.38;4824346;29;20496;-45
2021/05/31 08:29:24;;;;;;;6.97;1.73;;;;;;;11.50;100.00;100598.00;4824185;29;20073;-45
2021/05/31 08:32:27;;;;;;;8.02;2.10;;;;;;;11.58;100.00;100588.13;4824547;29;20054;-46
2021/05/31 08:35:32;;;;;;;8.85;3.10;;;;;;;11.66;100.00;100588.56;4824333;29;20046;-46
2021/05/31 08:38:35;;;;;;;10.25;2.38;;;;;;;11.78;100.00;100591.22;4824273;29;20042;-45
2021/05/31 08:41:39;;;;;;;12.35;3.47;;;;;;;11.95;100.00;100595.25;4824535;29;20054;-46
2021/05/31 08:44:43;;;;;;;12.38;2.38;;;;;;;12.03;100.00;100585.31;4823984;29;20563;-46
2021/05/31 08:47:48;;;;;;;10.98;2.15;;;;;;;12.04;100.00;100586.88;4824056;29;20042;-45
2021/05/31 08:50:52;;;;;;;9.90;3.17;;;;;;;12.10;100.00;100584.22;4823906;29;20504;-46
2021/05/31 08:53:56;;;;;;;7.38;2.25;;;;;;;12.14;100.00;100582.84;4824071;29;20050;-46
2021/05/31 08:57:00;;;;;;;5.55;3.00;;;;;;;12.19;100.00;100587.00;4823853;29;20503;-45
2021/05/31 09:00:07;;;;;;;8.05;2.25;;;;;;;12.39;100.00;100583.69;4823955;29;20527;-45
2021/05/31 09:03:10;;;;;;;16.92;2.50;;;;;;;12.43;100.00;100578.72;4824023;29;20054;-45
2021/05/31 09:06:15;;;;;;;6.72;2.45;;;;;;;12.38;100.00;100576.56;4812096;29;20054;-45
2021/05/31 09:09:19;;;;;;;6.78;2.28;;;;;;;12.44;100.00;100575.44;4805533;29;20046;-45
2021/05/31 09:12:28;;;;;;;7.85;2.42;;;;;;;12.44;100.00;100577.47;4805536;29;20419;-45
2021/05/31 09:15:32;;;;;;;12.80;2.53;;;;;;;12.60;100.00;100574.31;4805614;29;20531;-45
2021/05/31 09:18:37;;;;;;;7.05;2.88;;;;;;;12.62;100.00;100569.81;4794054;29;20396;-46
2021/05/31 09:21:43;;;;;;;6.25;2.47;;;;;;;12.57;100.00;100567.63;4805527;29;20057;-46
2021/05/31 09:24:58;;;;;;;9.85;2.75;;;;;;;12.57;100.00;100572.44;4805163;29;20077;-45
2021/05/31 09:28:11;;;;;;;10.48;2.47;;;;;;;12.81;100.00;100564.88;4811271;29;20046;-45
2021/05/31 09:31:17;;;;;;;6.07;1.40;;;;;;;13.10;100.00;100565.06;4811351;29;20050;-46
2021/05/31 09:34:20;;;;;;;15.43;2.63;;;;;;;13.29;100.00;100555.31;4800267;29;20047;-46
2021/05/31 09:37:24;;;;;;;8.98;2.13;;;;;;;13.20;100.00;100563.75;4811236;29;20052;-46
2021/05/31 09:40:28;;;;;;;8.23;2.75;;;;;;;13.30;100.00;100551.25;4811217;29;20114;-46
2021/05/31 09:43:37;;;;;;;8.00;1.77;;;;;;;13.27;100.00;100546.63;4811311;29;20051;-46
2021/05/31 09:46:45;;;;;;;14.57;2.60;;;;;;;13.44;100.00;100539.34;4811613;29;20051;-45
2021/05/31 09:49:49;;;;;;;14.52;4.45;;;;;;;13.75;100.00;100549.34;4810630;29;20051;-45
2021/05/31 09:53:02;;;;;;;5.70;1.77;;;;;;;13.90;100.00;100552.94;4811118;29;20054;-45
2021/05/31 09:56:16;;;;;;;11.80;2.90;;;;;;;13.97;100.00;100539.31;4810739;29;20074;-45
2021/05/31 09:59:24;;;;;;;10.82;3.20;;;;;;;14.08;100.00;100550.69;4811144;29;20047;-46
2021/05/31 10:02:45;;;;;;;6.80;2.00;;;;;;;14.15;100.00;100541.91;4810827;29;20580;-46
2021/05/31 10:06:05;;;;;;;6.63;2.15;;;;;;;14.50;100.00;100549.66;4819589;29;20058;-46
2021/05/31 10:09:09;;;;;;;7.10;2.20;;;;;;;14.94;100.00;100539.84;4829049;29;20049;-46
2021/05/31 10:12:15;;;;;;;10.30;3.28;;;;;;;15.03;100.00;100541.75;4829013;29;20407;-46
2021/05/31 10:15:22;;;;;;;6.40;1.77;;;;;;;15.44;100.00;100540.53;4829025;29;20042;-45
2021/05/31 10:18:28;;;;;;;10.32;3.80;;;;;;;15.57;100.00;100540.19;4828939;29;20038;-45
2021/05/31 10:21:31;;;;;;;12.32;2.75;;;;;;;15.46;100.00;100540.06;4829064;29;20046;-46
2021/05/31 10:24:35;;;;;;;4.63;2.05;;;;;;;15.45;100.00;100533.66;4828815;29;20042;-45
2021/05/31 10:27:40;;;;;;;10.48;3.58;;;;;;;15.53;100.00;100529.16;4805965;29;20073;-46
2021/05/31 10:30:46;;;;;;;7.05;3.15;;;;;;;15.63;100.00;100527.75;4810518;29;20055;-46
2021/05/31 10:34:00;;;;;;;7.63;2.35;;;;;;;15.74;100.00;100516.63;4810930;29;20062;-46
2021/05/31 10:37:04;;;;;;;6.43;2.38;;;;;;;15.87;100.00;100516.25;4810404;29;20051;-46
2021/05/31 10:40:12;;;;;;;15.95;2.35;;;;;;;16.10;100.00;100515.19;4807965;29;20062;-46
2021/05/31 10:43:19;;;;;;;7.47;2.40;;;;;;;16.23;100.00;100512.75;4807728;29;20496;-47
2021/05/31 10:46:30;;;;;;;7.28;2.85;;;;;;;16.31;100.00;100508.19;4808058;29;20066;-46
2021/05/31 10:49:34;;;;;;;7.20;2.28;;;;;;;16.41;100.00;100515.19;4807226;29;20114;-46
2021/05/31 10:52:37;;;;;;;4.68;2.13;;;;;;;16.53;100.00;100508.41;4807910;29;20053;-46
2021/05/31 10:56:02;;;;;;;13.40;2.65;;;;;;;16.71;100.00;100503.66;4807459;29;20046;-46
2021/05/31 10:59:05;;;;;;;8.82;2.70;;;;;;;16.86;100.00;100509.88;4806922;29;20050;-46
2021/05/31 11:02:23;;;;;;;6.10;2.72;;;;;;;16.89;100.00;100506.06;4807441;29;20038;-46
2021/05/31 11:05:32;;;;;;;3.53;1.73;;;;;;;17.01;100.00;100510.47;4812772;29;20411;-46
2021/05/31 11:08:46;;;;;;;7.63;3.20;;;;;;;17.16;100.00;100503.38;4825276;29;20039;-46
2021/05/31 11:11:52;;;;;;;7.07;2.67;;;;;;;17.25;100.00;100505.97;4825665;29;20058;-46
2021/05/31 11:15:10;;;;;;;6.45;3.20;;;;;;;17.21;100.00;100505.47;4825324;29;20399;-46
2021/05/31 11:18:32;;;;;;;7.55;2.08;;;;;;;17.31;100.00;100503.19;4814096;29;20046;-46
2021/05/31 11:21:44;;;;;;;7.28;2.58;;;;;;;17.38;100.00;100497.06;4825469;29;20042;-46
2021/05/31 11:24:52;;;;;;;5.82;2.20;;;;;;;17.45;100.00;100496.59;4825349;29;20065;-46
2021/05/31 11:28:00;;;;;;;6.72;2.05;;;;;;;17.52;100.00;100482.00;4825004;29;20486;-45
2021/05/31 11:31:03;;;;;;;8.00;2.72;;;;;;;17.53;100.00;100480.75;4825269;29;20073;-46
2021/05/31 11:34:07;;;;;;;7.82;2.53;;;;;;;17.57;100.00;100470.00;4825287;29;20065;-46
2021/05/31 11:41:53;;;;;;;8.13;3.45;;;;;;;17.85;100.00;100467.22;4826612;29;20046;-46
2021/05/31 11:44:58;;;;;;;5.68;2.55;;;;;;;18.04;100.00;100469.03;4825195;29;20046;-46
2021/05/31 11:48:07;;;;;;;13.25;3.88;;;;;;;18.22;100.00;100461.31;4825212;29;20065;-46
2021/05/31 11:51:12;;;;;;;7.07;1.58;;;;;;;18.27;100.00;100457.75;4825086;29;20050;-46
2021/05/31 11:54:25;;;;;;;9.07;3.30;;;;;;;18.33;100.00;100450.81;4824933;29;20416;-46
2021/05/31 11:57:31;;;;;;;4.75;1.75;;;;;;;18.41;100.00;100446.19;4824731;29;20077;-46
2021/05/31 12:00:39;;;;;;;8.52;2.83;;;;;;;18.49;100.00;100449.28;4825255;29;20403;-46
2021/05/31 12:03:45;;;;;;;9.68;2.33;;;;;;;18.60;100.00;100452.09;4824939;29;20057;-46
2021/05/31 12:07:11;;;;;;;6.85;2.47;;;;;;;18.65;100.00;100443.59;4808469;29;20400;-46
2021/05/31 12:10:15;;;;;;;11.10;2.97;;;;;;;18.36;100.00;100443.38;4806352;29;20043;-46
2021/05/31 12:13:27;;;;;;;8.55;3.17;;;;;;;18.54;100.00;100442.84;4805955;29;20047;-46
2021/05/31 12:16:31;;;;;;;8.70;3.22;;;;;;;18.56;100.00;100429.75;4805306;29;20058;-46
2021/05/31 12:19:34;;;;;;;5.75;2.35;;;;;;;18.81;100.00;100430.72;4806283;29;20046;-46
2021/05/31 12:22:38;;;;;;;7.95;2.80;;;;;;;19.13;100.00;100420.56;4806215;29;20043;-46
2021/05/31 12:25:42;;;;;;;6.82;3.33;;;;;;;19.27;100.00;100419.50;4806622;29;20051;-46
2021/05/31 12:28:46;;;;;;;6.35;2.28;;;;;;;19.32;100.00;100427.13;4805935;29;20047;-46
2021/05/31 12:31:50;;;;;;;5.38;1.52;;;;;;;19.47;100.00;100427.59;4806097;29;20385;-46
2021/05/31 12:34:57;;;;;;;7.13;2.50;;;;;;;19.55;100.00;100422.94;4794879;29;20073;-46
2021/05/31 12:38:01;;;;;;;12.10;3.22;;;;;;;19.40;100.00;100411.22;4806097;29;20046;-46
2021/05/31 12:41:05;;;;;;;9.52;2.17;;;;;;;19.60;100.00;100402.34;4806048;29;20039;-46
2021/05/31 12:44:09;;;;;;;4.80;1.75;;;;;;;19.79;100.00;100401.69;4805986;29;20043;-46
2021/05/31 12:47:14;;;;;;;9.60;2.15;;;;;;;19.70;100.00;100404.84;4805821;29;20047;-46
2021/05/31 12:50:37;;;;;;;9.20;1.98;;;;;;;19.59;100.00;100400.81;4805374;29;20050;-46
2021/05/31 12:53:43;;;;;;;8.60;2.20;;;;;;;19.68;100.00;100397.63;4805518;29;20050;-46
2021/05/31 12:56:47;;;;;;;14.40;2.55;;;;;;;19.63;100.00;100401.28;4805617;29;20049;-47
2021/05/31 12:59:50;;;;;;;4.80;1.42;;;;;;;19.67;100.00;100396.13;4805483;29;20388;-46
2021/05/31 13:03:01;;;;;;;4.70;2.15;;;;;;;19.61;100.00;100389.75;4805315;29;20652;-46
2021/05/31 13:06:05;;;;;;;;;;;;;;;19.64;100.00;100391.50;4816674;29;20050;-46
2021/05/31 13:09:21;;;;;;;5.70;1.80;;;;;;;19.58;100.00;100387.97;4823816;29;19925;-46
2021/05/31 13:12:24;;;;;;;5.47;1.98;;;;;;;19.60;100.00;100387.44;4823410;29;20061;-46
2021/05/31 13:15:38;;;;;;;5.18;1.85;;;;;;;19.66;100.00;100376.88;4823614;29;20046;-45
2021/05/31 13:18:43;;;;;;;7.80;2.75;;;;;;;19.77;100.00;100376.00;4823337;29;20038;-46
2021/05/31 13:21:55;;;;;;;7.60;1.98;;;;;;;19.88;100.00;100364.63;4823759;29;20381;-46
2021/05/31 13:25:00;;;;;;;4.93;2.05;;;;;;;19.63;100.00;100356.09;4812375;29;20053;-46
2021/05/31 13:28:28;;;;;;;5.72;1.50;;;;;;;19.88;100.00;100367.44;4823743;29;20078;-46
2021/05/31 13:31:31;;;;;;;6.95;1.45;;;;;;;20.10;100.00;100350.25;4816425;29;20058;-46
2021/05/31 13:34:35;;;;;;;13.38;2.38;;;;;;;20.23;100.00;100351.16;4823198;29;20466;-46
2021/05/31 13:37:47;;;;;;;16.55;2.40;;;;;;;20.33;100.00;100351.59;4823310;29;20038;-46
2021/05/31 13:40:50;;;;;;;1.88;0.70;;;;;;;20.25;100.00;100342.13;4823694;29;20042;-46
2021/05/31 13:43:54;;;;;;;7.28;1.60;;;;;;;20.17;100.00;100347.59;4823352;29;20077;-46
2021/05/31 13:46:57;;;;;;;9.07;1.65;;;;;;;20.20;100.00;100334.47;4823476;29;20050;-46
2021/05/31 13:50:00;;;;;;;4.75;2.25;;;;;;;20.22;100.00;100332.69;4823010;29;20050;-46
2021/05/31 13:53:05;;;;;;;6.03;1.38;;;;;;;20.50;100.00;100332.34;4823272;29;20061;-46
2021/05/31 13:56:09;;;;;;;7.70;1.90;;;;;;;20.61;100.00;100320.91;4822932;29;20043;-46
2021/05/31 13:59:12;;;;;;;8.52;2.25;;;;;;;20.75;100.00;100316.06;4811958;29;20046;-46
2021/05/31 14:02:15;;;;;;;3.58;1.52;;;;;;;20.81;100.00;100320.34;4822963;29;20050;-46
2021/05/31 14:05:19;;;;;;;7.80;2.25;;;;;;;20.74;100.00;100304.00;4818119;29;20042;-46
2021/05/31 14:08:35;;;;;;;9.20;2.80;;;;;;;20.78;100.00;100304.44;4804937;29;20480;-46
2021/05/31 14:11:40;;;;;;;8.60;2.20;;;;;;;20.86;100.00;100296.88;4794048;29;20051;-47
2021/05/31 14:14:52;;;;;;;4.35;2.05;;;;;;;21.03;100.00;100291.75;4807726;29;20062;-47
2021/05/31 14:17:57;;;;;;;3.70;1.20;;;;;;;20.87;100.00;100292.75;4797440;29;20039;-46
2021/05/31 14:21:01;;;;;;;7.78;1.58;;;;;;;20.96;100.00;100286.66;4808233;29;20500;-47
2021/05/31 14:24:05;;;;;;;5.70;1.85;;;;;;;21.00;100.00;100275.81;4808201;29;20069;-47
2021/05/31 14:27:15;;;;;;;2.83;1.15;;;;;;;21.16;100.00;100276.88;4796840;29;20042;-46
2021/05/31 14:30:20;;;;;;;8.93;2.25;;;;;;;21.20;100.00;100273.75;4808225;29;20050;-47
2021/05/31 14:33:24;;;;;;;5.20;1.67;;;;;;;21.15;100.00;100269.69;4808133;29;20058;-47
2021/05/31 14:40:54;;;;;;;5.65;1.27;;;;;;;21.36;100.00;100275.53;4811153;29;20077;-47
2021/05/31 14:43:57;;;;;;;2.15;0.95;;;;;;;21.35;100.00;100276.84;4807982;29;20054;-47
2021/05/31 14:47:07;;;;;;;2.85;0.70;;;;;;;21.29;100.00;100274.09;4807681;29;20046;-47
2021/05/31 14:50:19;;;;;;;5.53;1.58;;;;;;;21.41;100.00;100269.00;4807549;29;20131;-47
2021/05/31 14:53:24;;;;;;;3.97;1.20;;;;;;;21.41;100.00;100258.44;4796585;29;20051;-47
2021/05/31 14:56:31;;;;;;;17.73;5.50;;;;;;;21.46;100.00;100251.91;4807432;29;20042;-47
2021/05/31 14:59:36;;;;;;;6.38;1.00;;;;;;;21.47;100.00;100252.69;4807651;29;20043;-47
2021/05/31 15:02:39;;;;;;;12.18;2.55;;;;;;;21.69;100.00;100243.78;4796470;29;20038;-47
2021/05/31 15:05:44;;;;;;;15.98;5.32;;;;;;;21.89;100.00;100240.34;4803895;29;20042;-47
2021/05/31 15:08:47;;;;;;;4.22;1.92;;;;;;;21.83;100.00;100231.94;4814217;29;20050;-47
2021/05/31 15:11:50;;;;;;;4.75;1.73;;;;;;;21.78;100.00;100229.19;4825163;29;20061;-47
2021/05/31 15:14:54;;;;;;;2.97;1.05;;;;;;;21.76;100.00;100226.13;4824459;29;20047;-47
2021/05/31 15:22:31;;;;;;;4.20;0.90;;;;;;;21.80;100.00;100215.22;4831434;29;20046;-47
2021/05/31 15:25:34;;;;;;;5.57;1.13;;;;;;;21.84;100.00;100204.34;4824738;29;20042;-47
2021/05/31 15:28:40;;;;;;;4.47;0.73;;;;;;;21.87;100.00;100208.94;4821358;29;20059;-47
2021/05/31 15:31:49;;;;;;;2.72;0.88;;;;;;;21.71;100.00;100202.25;4788911;30;20067;-47